sensor_id;sensor_type;location;lat;lon;timestamp;pressure;altitude;pressure_sealevel;temperature;humidity
63088;BME280;49173;43.164;27.786;2024-02-04T00:00:47;100711.69;;;3.45;82.19
63088;BME280;49173;43.164;27.786;2024-02-04T00:03:13;100717.00;;;3.45;82.26
63088;BME280;49173;43.164;27.786;2024-02-04T00:05:38;100718.69;;;3.49;82.02
63088;BME280;49173;43.164;27.786;2024-02-04T00:08:04;100718.63;;;3.54;82.64
63088;BME280;49173;43.164;27.786;2024-02-04T00:10:29;100724.78;;;3.54;82.86
63088;BME280;49173;43.164;27.786;2024-02-04T00:12:55;100726.47;;;3.58;83.66
63088;BME280;49173;43.164;27.786;2024-02-04T00:15:21;100727.28;;;3.62;83.94
63088;BME280;49173;43.164;27.786;2024-02-04T00:17:46;100732.50;;;3.67;84.33
63088;BME280;49173;43.164;27.786;2024-02-04T00:20:12;100727.16;;;3.68;84.35
63088;BME280;49173;43.164;27.786;2024-02-04T00:22:37;100724.47;;;3.70;84.28
63088;BME280;49173;43.164;27.786;2024-02-04T00:25:03;100717.34;;;3.72;84.49
63088;BME280;49173;43.164;27.786;2024-02-04T00:27:32;100730.53;;;3.76;84.55
63088;BME280;49173;43.164;27.786;2024-02-04T00:29:57;100721.69;;;3.76;84.35
63088;BME280;49173;43.164;27.786;2024-02-04T00:32:24;100726.91;;;3.79;84.65
63088;BME280;49173;43.164;27.786;2024-02-04T00:34:51;100725.13;;;3.81;84.89
63088;BME280;49173;43.164;27.786;2024-02-04T00:37:16;100726.00;;;3.80;84.97
63088;BME280;49173;43.164;27.786;2024-02-04T00:39:42;100730.44;;;3.79;84.70
63088;BME280;49173;43.164;27.786;2024-02-04T00:42:08;100732.22;;;3.79;84.39
63088;BME280;49173;43.164;27.786;2024-02-04T00:44:33;100728.69;;;3.78;84.21
63088;BME280;49173;43.164;27.786;2024-02-04T00:46:59;100734.88;;;3.79;84.39
63088;BME280;49173;43.164;27.786;2024-02-04T00:49:24;100725.16;;;3.78;84.21
63088;BME280;49173;43.164;27.786;2024-02-04T00:51:51;100722.53;;;3.78;85.12
63088;BME280;49173;43.164;27.786;2024-02-04T00:54:17;100717.22;;;3.78;85.10
63088;BME280;49173;43.164;27.786;2024-02-04T00:56:43;100702.97;;;3.80;86.00
63088;BME280;49173;43.164;27.786;2024-02-04T00:59:08;100704.72;;;3.83;85.91
63088;BME280;49173;43.164;27.786;2024-02-04T01:01:35;100695.94;;;3.81;85.66
63088;BME280;49173;43.164;27.786;2024-02-04T01:04:00;100705.72;;;3.77;86.59
63088;BME280;49173;43.164;27.786;2024-02-04T01:06:26;100711.03;;;3.77;86.88
63088;BME280;49173;43.164;27.786;2024-02-04T01:08:53;100710.94;;;3.82;87.12
63088;BME280;49173;43.164;27.786;2024-02-04T01:11:18;100720.56;;;3.86;87.50
63088;BME280;49173;43.164;27.786;2024-02-04T01:13:44;100720.56;;;3.86;87.27
63088;BME280;49173;43.164;27.786;2024-02-04T01:16:09;100727.66;;;3.85;87.75
63088;BME280;49173;43.164;27.786;2024-02-04T01:18:35;100725.03;;;3.84;87.61
63088;BME280;49173;43.164;27.786;2024-02-04T01:21:01;100725.84;;;3.88;87.88
63088;BME280;49173;43.164;27.786;2024-02-04T01:23:26;100717.88;;;3.88;87.86
63088;BME280;49173;43.164;27.786;2024-02-04T01:25:52;100724.09;;;3.86;88.30
63088;BME280;49173;43.164;27.786;2024-02-04T01:28:17;100710.84;;;3.85;88.31
63088;BME280;49173;43.164;27.786;2024-02-04T01:30:43;100705.56;;;3.85;88.28
63088;BME280;49173;43.164;27.786;2024-02-04T01:33:08;100701.13;;;3.85;88.23
63088;BME280;49173;43.164;27.786;2024-02-04T01:35:34;100706.38;;;3.87;87.79
63088;BME280;49173;43.164;27.786;2024-02-04T01:38:01;100701.13;;;3.85;88.07
63088;BME280;49173;43.164;27.786;2024-02-04T01:40:27;100697.53;;;3.86;87.83
63088;BME280;49173;43.164;27.786;2024-02-04T01:42:52;100706.38;;;3.87;87.94
63088;BME280;49173;43.164;27.786;2024-02-04T01:45:18;100699.28;;;3.89;87.93
63088;BME280;49173;43.164;27.786;2024-02-04T01:47:43;100690.44;;;3.87;87.84
63088;BME280;49173;43.164;27.786;2024-02-04T01:50:09;100689.56;;;3.88;88.05
63088;BME280;49173;43.164;27.786;2024-02-04T01:52:36;100687.78;;;3.87;88.06
63088;BME280;49173;43.164;27.786;2024-02-04T01:55:03;100693.94;;;3.91;88.52
63088;BME280;49173;43.164;27.786;2024-02-04T01:57:30;100686.88;;;3.90;88.35
63088;BME280;49173;43.164;27.786;2024-02-04T01:59:56;100682.50;;;3.87;88.26
63088;BME280;49173;43.164;27.786;2024-02-04T02:02:22;100672.72;;;3.89;88.51
63088;BME280;49173;43.164;27.786;2024-02-04T02:04:48;100667.41;;;3.89;88.54
63088;BME280;49173;43.164;27.786;2024-02-04T02:07:15;100664.75;;;3.89;88.85
63088;BME280;49173;43.164;27.786;2024-02-04T02:09:45;100658.50;;;3.92;89.16
63088;BME280;49173;43.164;27.786;2024-02-04T02:14:37;100659.38;;;3.92;89.49
63088;BME280;49173;43.164;27.786;2024-02-04T02:17:07;100646.06;;;3.94;89.53
63088;BME280;49173;43.164;27.786;2024-02-04T02:19:53;100654.00;;;3.94;89.82
63088;BME280;49173;43.164;27.786;2024-02-04T02:22:30;100653.00;;;3.99;90.67
63088;BME280;49173;43.164;27.786;2024-02-04T02:25:02;100644.94;;;4.04;91.17
63088;BME280;49173;43.164;27.786;2024-02-04T02:27:30;100631.63;;;4.05;91.40
63088;BME280;49173;43.164;27.786;2024-02-04T02:29:55;100635.88;;;4.12;91.52
63088;BME280;49173;43.164;27.786;2024-02-04T02:32:21;100633.13;;;4.17;91.95
63088;BME280;49173;43.164;27.786;2024-02-04T02:34:47;100627.75;;;4.19;92.23
63088;BME280;49173;43.164;27.786;2024-02-04T02:39:57;100627.72;;;4.20;92.17
63088;BME280;49173;43.164;27.786;2024-02-04T02:42:24;100631.25;;;4.21;92.22
63088;BME280;49173;43.164;27.786;2024-02-04T02:44:50;100632.97;;;4.22;91.81
63088;BME280;49173;43.164;27.786;2024-02-04T02:47:16;100632.19;;;4.18;91.76
63088;BME280;49173;43.164;27.786;2024-02-04T02:49:43;100625.16;;;4.17;91.74
63088;BME280;49173;43.164;27.786;2024-02-04T02:52:09;100627.66;;;4.22;91.77
63088;BME280;49173;43.164;27.786;2024-02-04T02:54:34;100630.31;;;4.23;91.70
63088;BME280;49173;43.164;27.786;2024-02-04T02:57:00;100634.66;;;4.26;91.81
63088;BME280;49173;43.164;27.786;2024-02-04T02:59:25;100649.66;;;4.28;91.69
63088;BME280;49173;43.164;27.786;2024-02-04T03:01:51;100646.06;;;4.31;91.55
63088;BME280;49173;43.164;27.786;2024-02-04T03:04:16;100647.72;;;4.35;91.98
63088;BME280;49173;43.164;27.786;2024-02-04T03:06:42;100636.16;;;4.36;91.63
63088;BME280;49173;43.164;27.786;2024-02-04T03:09:07;100639.63;;;4.39;92.19
63088;BME280;49173;43.164;27.786;2024-02-04T03:11:35;100644.00;;;4.42;92.00
63088;BME280;49173;43.164;27.786;2024-02-04T03:14:03;100643.00;;;4.46;92.09
63088;BME280;49173;43.164;27.786;2024-02-04T03:16:28;100649.91;;;4.53;92.26
63088;BME280;49173;43.164;27.786;2024-02-04T03:18:53;100640.06;;;4.57;92.02
63088;BME280;49173;43.164;27.786;2024-02-04T03:21:20;100640.81;;;4.62;92.02
63088;BME280;49173;43.164;27.786;2024-02-04T03:23:47;100643.53;;;4.60;92.15
63088;BME280;49173;43.164;27.786;2024-02-04T03:26:16;100644.34;;;4.62;92.21
63088;BME280;49173;43.164;27.786;2024-02-04T03:28:42;100652.25;;;4.65;91.79
63088;BME280;49173;43.164;27.786;2024-02-04T03:31:07;100653.09;;;4.67;91.88
63088;BME280;49173;43.164;27.786;2024-02-04T03:33:33;100649.50;;;4.68;91.70
63088;BME280;49173;43.164;27.786;2024-02-04T03:35:58;100645.88;;;4.73;91.46
63088;BME280;49173;43.164;27.786;2024-02-04T03:38:24;100641.44;;;4.72;91.79
63088;BME280;49173;43.164;27.786;2024-02-04T03:40:49;100640.56;;;4.73;91.57
63088;BME280;49173;43.164;27.786;2024-02-04T03:43:15;100644.97;;;4.74;91.49
63088;BME280;49173;43.164;27.786;2024-02-04T03:45:41;100640.47;;;4.76;91.19
63088;BME280;49173;43.164;27.786;2024-02-04T03:48:06;100635.19;;;4.74;91.17
63088;BME280;49173;43.164;27.786;2024-02-04T03:50:32;100637.81;;;4.76;91.15
63088;BME280;49173;43.164;27.786;2024-02-04T03:52:58;100625.38;;;4.76;91.46
63088;BME280;49173;43.164;27.786;2024-02-04T03:55:23;100634.22;;;4.77;91.32
63088;BME280;49173;43.164;27.786;2024-02-04T03:57:49;100643.88;;;4.81;91.48
63088;BME280;49173;43.164;27.786;2024-02-04T04:00:15;100636.69;;;4.84;91.38
63088;BME280;49173;43.164;27.786;2024-02-04T04:02:40;100628.53;;;4.90;91.99
63088;BME280;49173;43.164;27.786;2024-02-04T04:05:10;100628.41;;;4.95;91.68
63088;BME280;49173;43.164;27.786;2024-02-04T04:07:35;100616.75;;;4.99;91.83
63088;BME280;49173;43.164;27.786;2024-02-04T04:10:01;100606.97;;;5.01;91.97
63088;BME280;49173;43.164;27.786;2024-02-04T04:12:26;100612.25;;;5.03;91.99
63088;BME280;49173;43.164;27.786;2024-02-04T04:14:53;100614.63;;;5.12;92.06
63088;BME280;49173;43.164;27.786;2024-02-04T04:17:18;100616.31;;;5.14;91.99
63088;BME280;49173;43.164;27.786;2024-02-04T04:19:44;100618.97;;;5.16;92.03
63088;BME280;49173;43.164;27.786;2024-02-04T04:22:09;100610.94;;;5.17;91.70
63088;BME280;49173;43.164;27.786;2024-02-04T04:24:35;100601.03;;;5.22;91.73
63088;BME280;49173;43.164;27.786;2024-02-04T04:27:01;100595.53;;;5.29;91.73
63088;BME280;49173;43.164;27.786;2024-02-04T04:29:26;100601.56;;;5.34;91.59
63088;BME280;49173;43.164;27.786;2024-02-04T04:31:52;100597.91;;;5.38;91.56
63088;BME280;49173;43.164;27.786;2024-02-04T04:34:17;100596.94;;;5.40;91.75
63088;BME280;49173;43.164;27.786;2024-02-04T04:36:45;100600.28;;;5.47;91.25
63088;BME280;49173;43.164;27.786;2024-02-04T04:39:10;100600.06;;;5.55;91.01
63088;BME280;49173;43.164;27.786;2024-02-04T04:41:36;100606.06;;;5.61;91.02
63088;BME280;49173;43.164;27.786;2024-02-04T04:44:01;100599.75;;;5.64;90.75
63088;BME280;49173;43.164;27.786;2024-02-04T04:46:27;100598.81;;;5.66;90.45
63088;BME280;49173;43.164;27.786;2024-02-04T04:48:52;100602.22;;;5.71;90.46
63088;BME280;49173;43.164;27.786;2024-02-04T04:51:18;100603.78;;;5.77;90.36
63088;BME280;49173;43.164;27.786;2024-02-04T04:53:43;100598.44;;;5.78;90.33
63088;BME280;49173;43.164;27.786;2024-02-04T04:56:10;100612.47;;;5.84;89.76
63088;BME280;49173;43.164;27.786;2024-02-04T04:58:35;100615.84;;;5.89;89.73
63088;BME280;49173;43.164;27.786;2024-02-04T05:01:01;100615.69;;;5.95;89.88
63088;BME280;49173;43.164;27.786;2024-02-04T05:03:27;100606.78;;;5.96;89.32
63088;BME280;49173;43.164;27.786;2024-02-04T05:05:52;100609.31;;;6.00;89.26
63088;BME280;49173;43.164;27.786;2024-02-04T05:08:18;100622.56;;;6.02;89.18
63088;BME280;49173;43.164;27.786;2024-02-04T05:10:43;100606.59;;;6.02;89.01
63088;BME280;49173;43.164;27.786;2024-02-04T05:13:09;100618.97;;;6.03;88.98
63088;BME280;49173;43.164;27.786;2024-02-04T05:15:34;100617.09;;;6.07;88.42
63088;BME280;49173;43.164;27.786;2024-02-04T05:18:00;100618.94;;;6.04;88.34
63088;BME280;49173;43.164;27.786;2024-02-04T05:20:26;100618.97;;;6.03;88.38
63088;BME280;49173;43.164;27.786;2024-02-04T05:22:51;100618.06;;;6.04;88.39
63088;BME280;49173;43.164;27.786;2024-02-04T05:25:17;100621.69;;;6.01;88.39
63088;BME280;49173;43.164;27.786;2024-02-04T05:27:42;100611.91;;;6.02;88.06
63088;BME280;49173;43.164;27.786;2024-02-04T05:30:08;100615.59;;;5.98;88.50
63088;BME280;49173;43.164;27.786;2024-02-04T05:32:34;100602.28;;;5.98;88.45
63088;BME280;49173;43.164;27.786;2024-02-04T05:35:00;100609.44;;;5.96;88.56
63088;BME280;49173;43.164;27.786;2024-02-04T05:37:26;100601.41;;;5.97;88.29
63088;BME280;49173;43.164;27.786;2024-02-04T05:39:51;100604.94;;;5.98;88.36
63088;BME280;49173;43.164;27.786;2024-02-04T05:42:17;100602.44;;;5.93;88.39
63088;BME280;49173;43.164;27.786;2024-02-04T05:44:42;100605.13;;;5.92;88.58
63088;BME280;49173;43.164;27.786;2024-02-04T05:47:08;100606.06;;;5.91;88.79
63088;BME280;49173;43.164;27.786;2024-02-04T05:49:33;100605.97;;;5.94;89.05
63088;BME280;49173;43.164;27.786;2024-02-04T05:51:59;100611.34;;;5.92;89.08
63088;BME280;49173;43.164;27.786;2024-02-04T05:54:27;100617.44;;;5.96;89.32
63088;BME280;49173;43.164;27.786;2024-02-04T05:56:52;100623.56;;;5.98;88.96
63088;BME280;49173;43.164;27.786;2024-02-04T05:59:18;100617.31;;;6.00;89.06
63088;BME280;49173;43.164;27.786;2024-02-04T06:01:43;100606.59;;;6.02;88.87
63088;BME280;49173;43.164;27.786;2024-02-04T06:04:10;100607.41;;;6.04;89.09
63088;BME280;49173;43.164;27.786;2024-02-04T06:06:35;100600.28;;;6.04;88.94
63088;BME280;49173;43.164;27.786;2024-02-04T06:09:02;100599.47;;;6.02;89.28
63088;BME280;49173;43.164;27.786;2024-02-04T06:11:28;100607.47;;;6.02;89.48
63088;BME280;49173;43.164;27.786;2024-02-04T06:13:53;100597.63;;;6.04;89.37
63088;BME280;49173;43.164;27.786;2024-02-04T06:16:19;100606.44;;;6.07;89.41
63088;BME280;49173;43.164;27.786;2024-02-04T06:18:45;100603.66;;;6.10;89.25
63088;BME280;49173;43.164;27.786;2024-02-04T06:21:10;100600.00;;;6.14;89.01
63088;BME280;49173;43.164;27.786;2024-02-04T06:23:37;100608.75;;;6.17;88.94
63088;BME280;49173;43.164;27.786;2024-02-04T06:26:03;100617.41;;;6.24;88.80
63088;BME280;49173;43.164;27.786;2024-02-04T06:28:29;100611.94;;;6.28;88.83
63088;BME280;49173;43.164;27.786;2024-02-04T06:30:54;100609.06;;;6.35;88.49
63088;BME280;49173;43.164;27.786;2024-02-04T06:33:20;100618.63;;;6.40;88.44
63088;BME280;49173;43.164;27.786;2024-02-04T06:35:46;100620.16;;;6.47;88.35
63088;BME280;49173;43.164;27.786;2024-02-04T06:38:11;100630.56;;;6.55;87.80
63088;BME280;49173;43.164;27.786;2024-02-04T06:40:55;100624.22;;;6.59;87.62
63088;BME280;49173;43.164;27.786;2024-02-04T06:43:21;100622.28;;;6.64;87.16
63088;BME280;49173;43.164;27.786;2024-02-04T06:45:47;100621.28;;;6.67;86.56
63088;BME280;49173;43.164;27.786;2024-02-04T06:48:12;100620.28;;;6.69;86.46
63088;BME280;49173;43.164;27.786;2024-02-04T06:50:38;100621.06;;;6.73;86.53
63088;BME280;49173;43.164;27.786;2024-02-04T06:53:04;100619.22;;;6.75;86.22
63088;BME280;49173;43.164;27.786;2024-02-04T06:55:29;100617.25;;;6.80;86.23
63088;BME280;49173;43.164;27.786;2024-02-04T06:57:55;100617.19;;;6.81;86.32
63088;BME280;49173;43.164;27.786;2024-02-04T07:00:20;100615.47;;;6.80;86.50
63088;BME280;49173;43.164;27.786;2024-02-04T07:02:46;100620.59;;;6.86;86.37
63088;BME280;49173;43.164;27.786;2024-02-04T07:05:12;100625.81;;;6.89;85.60
63088;BME280;49173;43.164;27.786;2024-02-04T07:07:37;100627.44;;;6.94;85.68
63088;BME280;49173;43.164;27.786;2024-02-04T07:10:03;100622.00;;;6.97;85.53
63088;BME280;49173;43.164;27.786;2024-02-04T07:12:29;100623.69;;;6.99;85.48
63088;BME280;49173;43.164;27.786;2024-02-04T07:14:54;100622.69;;;7.02;84.99
63088;BME280;49173;43.164;27.786;2024-02-04T07:17:20;100613.66;;;7.06;85.05
63088;BME280;49173;43.164;27.786;2024-02-04T07:19:45;100614.47;;;7.08;84.63
63088;BME280;49173;43.164;27.786;2024-02-04T07:22:11;100618.78;;;7.12;85.00
63088;BME280;49173;43.164;27.786;2024-02-04T07:24:37;100620.31;;;7.19;84.97
63088;BME280;49173;43.164;27.786;2024-02-04T07:27:02;100627.97;;;7.28;85.12
63088;BME280;49173;43.164;27.786;2024-02-04T07:29:28;100623.97;;;7.40;85.02
63088;BME280;49173;43.164;27.786;2024-02-04T07:31:53;100631.56;;;7.51;84.63
63088;BME280;49173;43.164;27.786;2024-02-04T07:34:19;100622.44;;;7.56;84.23
63088;BME280;49173;43.164;27.786;2024-02-04T07:36:45;100623.16;;;7.61;83.80
63088;BME280;49173;43.164;27.786;2024-02-04T07:39:10;100618.47;;;7.66;83.15
63088;BME280;49173;43.164;27.786;2024-02-04T07:41:36;100613.78;;;7.73;82.96
63088;BME280;49173;43.164;27.786;2024-02-04T07:44:02;100612.78;;;7.76;83.07
63088;BME280;49173;43.164;27.786;2024-02-04T07:46:28;100617.94;;;7.80;83.17
63088;BME280;49173;43.164;27.786;2024-02-04T07:48:54;100610.75;;;7.82;83.36
63088;BME280;49173;43.164;27.786;2024-02-04T07:51:19;100616.91;;;7.84;83.58
63088;BME280;49173;43.164;27.786;2024-02-04T07:53:45;100616.69;;;7.89;82.75
63088;BME280;49173;43.164;27.786;2024-02-04T07:56:11;100625.53;;;7.91;82.43
63088;BME280;49173;43.164;27.786;2024-02-04T07:58:36;100623.66;;;7.93;82.63
63088;BME280;49173;43.164;27.786;2024-02-04T08:01:02;100628.09;;;7.94;82.48
63088;BME280;49173;43.164;27.786;2024-02-04T08:03:27;100636.03;;;7.95;82.66
63088;BME280;49173;43.164;27.786;2024-02-04T08:05:53;100633.13;;;8.02;82.77
63088;BME280;49173;43.164;27.786;2024-02-04T08:08:19;100644.34;;;8.11;82.76
63088;BME280;49173;43.164;27.786;2024-02-04T08:10:44;100648.59;;;8.15;82.79
63088;BME280;49173;43.164;27.786;2024-02-04T08:13:10;100647.41;;;8.22;82.14
63088;BME280;49173;43.164;27.786;2024-02-04T08:15:35;100648.19;;;8.26;81.83
63088;BME280;49173;43.164;27.786;2024-02-04T08:18:01;100651.59;;;8.30;81.96
63088;BME280;49173;43.164;27.786;2024-02-04T08:20:26;100652.53;;;8.29;81.80
63088;BME280;49173;43.164;27.786;2024-02-04T08:22:52;100641.91;;;8.27;81.29
63088;BME280;49173;43.164;27.786;2024-02-04T08:25:18;100635.69;;;8.26;81.27
63088;BME280;49173;43.164;27.786;2024-02-04T08:27:43;100634.59;;;8.31;81.09
63088;BME280;49173;43.164;27.786;2024-02-04T08:30:09;100623.88;;;8.32;80.75
63088;BME280;49173;43.164;27.786;2024-02-04T08:32:38;100624.78;;;8.31;80.66
63088;BME280;49173;43.164;27.786;2024-02-04T08:35:04;100628.28;;;8.33;80.86
63088;BME280;49173;43.164;27.786;2024-02-04T08:37:31;100621.09;;;8.35;80.84
63088;BME280;49173;43.164;27.786;2024-02-04T08:39:56;100619.22;;;8.37;79.96
63088;BME280;49173;43.164;27.786;2024-02-04T08:42:22;100623.50;;;8.41;80.24
63088;BME280;49173;43.164;27.786;2024-02-04T08:44:48;100623.31;;;8.46;80.38
63088;BME280;49173;43.164;27.786;2024-02-04T08:47:13;100616.09;;;8.48;80.12
63088;BME280;49173;43.164;27.786;2024-02-04T08:49:41;100623.91;;;8.52;80.09
63088;BME280;49173;43.164;27.786;2024-02-04T08:52:06;100614.97;;;8.53;80.19
63088;BME280;49173;43.164;27.786;2024-02-04T08:54:32;100618.19;;;8.62;80.01
63088;BME280;49173;43.164;27.786;2024-02-04T08:56:57;100625.19;;;8.64;79.66
63088;BME280;49173;43.164;27.786;2024-02-04T08:59:23;100617.72;;;8.72;79.09
63088;BME280;49173;43.164;27.786;2024-02-04T09:01:50;100615.78;;;8.76;78.29
63088;BME280;49173;43.164;27.786;2024-02-04T09:04:16;100614.56;;;8.83;78.58
63088;BME280;49173;43.164;27.786;2024-02-04T09:06:41;100622.47;;;8.86;78.45
63088;BME280;49173;43.164;27.786;2024-02-04T09:09:07;100617.00;;;8.89;78.25
63088;BME280;49173;43.164;27.786;2024-02-04T09:11:34;100608.97;;;8.89;78.04
63088;BME280;49173;43.164;27.786;2024-02-04T09:14:01;100618.72;;;8.90;78.17
63088;BME280;49173;43.164;27.786;2024-02-04T09:16:29;100618.56;;;8.93;77.32
63088;BME280;49173;43.164;27.786;2024-02-04T09:18:57;100614.03;;;8.95;77.38
63088;BME280;49173;43.164;27.786;2024-02-04T09:21:24;100607.75;;;8.96;77.26
63088;BME280;49173;43.164;27.786;2024-02-04T09:23:50;100604.22;;;8.96;77.37
63088;BME280;49173;43.164;27.786;2024-02-04T09:26:15;100605.00;;;8.98;77.23
63088;BME280;49173;43.164;27.786;2024-02-04T09:28:42;100600.50;;;8.98;77.15
63088;BME280;49173;43.164;27.786;2024-02-04T09:31:08;100597.03;;;8.96;77.31
63088;BME280;49173;43.164;27.786;2024-02-04T09:33:33;100595.00;;;9.01;77.30
63088;BME280;49173;43.164;27.786;2024-02-04T09:35:59;100591.41;;;9.02;77.22
63088;BME280;49173;43.164;27.786;2024-02-04T09:38:24;100588.66;;;9.04;77.09
63088;BME280;49173;43.164;27.786;2024-02-04T09:40:50;100590.59;;;9.00;76.78
63088;BME280;49173;43.164;27.786;2024-02-04T09:43:16;100584.44;;;8.98;76.89
63088;BME280;49173;43.164;27.786;2024-02-04T09:45:41;100571.94;;;8.99;76.41
63088;BME280;49173;43.164;27.786;2024-02-04T09:48:08;100587.81;;;9.03;76.35
63088;BME280;49173;43.164;27.786;2024-02-04T09:50:34;100568.13;;;9.04;76.59
63088;BME280;49173;43.164;27.786;2024-02-04T09:52:59;100567.03;;;9.08;77.05
63088;BME280;49173;43.164;27.786;2024-02-04T09:55:30;100556.09;;;9.13;76.96
63088;BME280;49173;43.164;27.786;2024-02-04T09:57:57;100545.03;;;9.21;77.08
63088;BME280;49173;43.164;27.786;2024-02-04T10:00:23;100541.13;;;9.28;77.22
63088;BME280;49173;43.164;27.786;2024-02-04T10:02:49;100537.09;;;9.38;77.69
63088;BME280;49173;43.164;27.786;2024-02-04T10:05:15;100540.00;;;9.52;76.75
63088;BME280;49173;43.164;27.786;2024-02-04T10:07:42;100533.16;;;9.64;76.79
63088;BME280;49173;43.164;27.786;2024-02-04T10:10:07;100529.88;;;9.76;76.05
63088;BME280;49173;43.164;27.786;2024-02-04T10:12:33;100530.38;;;9.84;74.88
63088;BME280;49173;43.164;27.786;2024-02-04T10:15:01;100537.25;;;9.90;74.44
63088;BME280;49173;43.164;27.786;2024-02-04T10:17:28;100536.88;;;9.98;74.13
63088;BME280;49173;43.164;27.786;2024-02-04T10:19:54;100530.34;;;10.03;73.79
63088;BME280;49173;43.164;27.786;2024-02-04T10:22:19;100537.22;;;10.09;73.57
63088;BME280;49173;43.164;27.786;2024-02-04T10:24:45;100532.56;;;10.12;73.69
63088;BME280;49173;43.164;27.786;2024-02-04T10:27:17;100532.97;;;10.22;73.36
63088;BME280;49173;43.164;27.786;2024-02-04T10:29:42;100522.78;;;10.29;73.06
63088;BME280;49173;43.164;27.786;2024-02-04T10:32:08;100527.00;;;10.34;72.59
63088;BME280;49173;43.164;27.786;2024-02-04T10:34:37;100534.81;;;10.39;72.47
63088;BME280;49173;43.164;27.786;2024-02-04T10:37:04;100534.63;;;10.42;72.37
63088;BME280;49173;43.164;27.786;2024-02-04T10:39:30;100528.00;;;10.49;72.26
63088;BME280;49173;43.164;27.786;2024-02-04T10:41:56;100526.91;;;10.53;72.36
63088;BME280;49173;43.164;27.786;2024-02-04T10:44:25;100527.69;;;10.55;71.33
63088;BME280;49173;43.164;27.786;2024-02-04T10:46:52;100519.72;;;10.54;71.14
63088;BME280;49173;43.164;27.786;2024-02-04T10:49:21;100515.31;;;10.53;70.91
63088;BME280;49173;43.164;27.786;2024-02-04T10:51:48;100522.72;;;10.48;71.25
63088;BME280;49173;43.164;27.786;2024-02-04T10:54:15;100523.59;;;10.48;71.71
63088;BME280;49173;43.164;27.786;2024-02-04T10:57:00;100507.41;;;10.50;71.66
63088;BME280;49173;43.164;27.786;2024-02-04T10:59:28;100504.72;;;10.50;71.89
63088;BME280;49173;43.164;27.786;2024-02-04T11:01:55;100498.34;;;10.52;71.76
63088;BME280;49173;43.164;27.786;2024-02-04T11:04:21;100491.16;;;10.53;71.64
63088;BME280;49173;43.164;27.786;2024-02-04T11:06:48;100499.84;;;10.58;71.64
63088;BME280;49173;43.164;27.786;2024-02-04T11:09:14;100499.59;;;10.62;71.49
63088;BME280;49173;43.164;27.786;2024-02-04T11:11:42;100482.47;;;10.65;71.16
63088;BME280;49173;43.164;27.786;2024-02-04T11:14:10;100481.25;;;10.70;71.11
63088;BME280;49173;43.164;27.786;2024-02-04T11:21:45;100484.88;;;10.87;70.68
63088;BME280;49173;43.164;27.786;2024-02-04T11:26:55;100486.25;;;10.94;70.66
63088;BME280;49173;43.164;27.786;2024-02-04T11:29:22;100491.44;;;10.97;70.40
63088;BME280;49173;43.164;27.786;2024-02-04T11:31:47;100491.22;;;11.02;70.07
63088;BME280;49173;43.164;27.786;2024-02-04T11:34:13;100497.69;;;10.97;69.68
63088;BME280;49173;43.164;27.786;2024-02-04T11:36:39;100491.34;;;10.98;69.93
63088;BME280;49173;43.164;27.786;2024-02-04T11:39:12;100496.72;;;10.98;70.46
63088;BME280;49173;43.164;27.786;2024-02-04T11:41:46;100487.81;;;10.98;70.28
63088;BME280;49173;43.164;27.786;2024-02-04T11:44:12;100494.03;;;10.98;70.08
63088;BME280;49173;43.164;27.786;2024-02-04T11:46:38;100500.47;;;10.96;69.81
63088;BME280;49173;43.164;27.786;2024-02-04T11:49:14;100506.69;;;10.96;69.95
63088;BME280;49173;43.164;27.786;2024-02-04T11:51:41;100506.69;;;10.96;70.15
63088;BME280;49173;43.164;27.786;2024-02-04T11:54:07;100504.97;;;10.95;70.15
63088;BME280;49173;43.164;27.786;2024-02-04T11:56:32;100496.66;;;11.00;70.20
63088;BME280;49173;43.164;27.786;2024-02-04T11:58:58;100509.16;;;11.01;69.98
63088;BME280;49173;43.164;27.786;2024-02-04T12:01:24;100510.09;;;11.00;70.25
63088;BME280;49173;43.164;27.786;2024-02-04T12:03:50;100511.97;;;10.98;70.09
63088;BME280;49173;43.164;27.786;2024-02-04T12:06:16;100506.63;;;10.98;70.23
63088;BME280;49173;43.164;27.786;2024-02-04T12:08:42;100504.78;;;10.98;70.06
63088;BME280;49173;43.164;27.786;2024-02-04T12:11:08;100496.66;;;11.00;70.28
63088;BME280;49173;43.164;27.786;2024-02-04T12:13:34;100499.19;;;11.03;70.31
63088;BME280;49173;43.164;27.786;2024-02-04T12:16:04;100493.47;;;11.09;70.08
63088;BME280;49173;43.164;27.786;2024-02-04T12:18:30;100488.72;;;11.14;69.90
63088;BME280;49173;43.164;27.786;2024-02-04T12:20:55;100486.81;;;11.16;69.79
63088;BME280;49173;43.164;27.786;2024-02-04T12:23:21;100482.84;;;11.23;69.82
63088;BME280;49173;43.164;27.786;2024-02-04T12:25:48;100473.56;;;11.29;69.42
63088;BME280;49173;43.164;27.786;2024-02-04T12:28:14;100479.72;;;11.31;69.06
63088;BME280;49173;43.164;27.786;2024-02-04T12:30:39;100477.78;;;11.33;68.63
63088;BME280;49173;43.164;27.786;2024-02-04T12:33:05;100470.53;;;11.35;68.81
63088;BME280;49173;43.164;27.786;2024-02-04T12:35:31;100464.13;;;11.38;68.63
63088;BME280;49173;43.164;27.786;2024-02-04T12:37:57;100456.06;;;11.38;68.47
63088;BME280;49173;43.164;27.786;2024-02-04T12:40:24;100460.47;;;11.39;68.93
63088;BME280;49173;43.164;27.786;2024-02-04T12:42:53;100452.16;;;11.43;68.74
63088;BME280;49173;43.164;27.786;2024-02-04T12:45:19;100454.75;;;11.45;68.70
63088;BME280;49173;43.164;27.786;2024-02-04T12:47:51;100440.44;;;11.44;67.98
63088;BME280;49173;43.164;27.786;2024-02-04T12:50:17;100441.50;;;11.42;68.21
63088;BME280;49173;43.164;27.786;2024-02-04T12:52:50;100446.88;;;11.42;67.88
63088;BME280;49173;43.164;27.786;2024-02-04T12:55:26;100443.38;;;11.40;67.81